sensor_id;sensor_type;location;lat;lon;timestamp;temperature;humidity
13332;DHT22;6735;51.456;12.626;2023-04-03T00:00:13;2.60;71.40
13332;DHT22;6735;51.456;12.626;2023-04-03T00:02:38;2.60;71.30
13332;DHT22;6735;51.456;12.626;2023-04-03T00:05:06;2.60;71.20
13332;DHT22;6735;51.456;12.626;2023-04-03T00:07:31;2.60;71.30
13332;DHT22;6735;51.456;12.626;2023-04-03T00:09:57;2.60;71.30
13332;DHT22;6735;51.456;12.626;2023-04-03T00:12:22;2.60;71.30
13332;DHT22;6735;51.456;12.626;2023-04-03T00:14:48;2.60;71.10
13332;DHT22;6735;51.456;12.626;2023-04-03T00:17:13;2.60;71.20
13332;DHT22;6735;51.456;12.626;2023-04-03T00:19:39;2.50;71.20
13332;DHT22;6735;51.456;12.626;2023-04-03T00:22:04;2.50;71.50
13332;DHT22;6735;51.456;12.626;2023-04-03T00:24:30;2.40;71.10
13332;DHT22;6735;51.456;12.626;2023-04-03T00:26:55;2.40;71.30
13332;DHT22;6735;51.456;12.626;2023-04-03T00:29:21;2.30;71.70
13332;DHT22;6735;51.456;12.626;2023-04-03T00:31:46;2.20;71.40
13332;DHT22;6735;51.456;12.626;2023-04-03T00:34:12;2.30;71.50
13332;DHT22;6735;51.456;12.626;2023-04-03T00:36:37;2.20;71.60
13332;DHT22;6735;51.456;12.626;2023-04-03T00:39:03;2.20;72.00
13332;DHT22;6735;51.456;12.626;2023-04-03T00:41:28;2.20;71.90
13332;DHT22;6735;51.456;12.626;2023-04-03T00:43:54;2.10;72.20
13332;DHT22;6735;51.456;12.626;2023-04-03T00:46:19;2.10;72.20
13332;DHT22;6735;51.456;12.626;2023-04-03T00:48:46;2.00;72.40
13332;DHT22;6735;51.456;12.626;2023-04-03T00:51:23;2.00;72.70
13332;DHT22;6735;51.456;12.626;2023-04-03T00:53:54;2.00;72.80
13332;DHT22;6735;51.456;12.626;2023-04-03T00:56:25;1.80;72.90
13332;DHT22;6735;51.456;12.626;2023-04-03T00:58:56;1.70;73.40
13332;DHT22;6735;51.456;12.626;2023-04-03T01:01:24;1.70;73.40
13332;DHT22;6735;51.456;12.626;2023-04-03T01:03:51;1.70;73.50
13332;DHT22;6735;51.456;12.626;2023-04-03T01:06:19;1.60;73.40
13332;DHT22;6735;51.456;12.626;2023-04-03T01:08:48;1.60;73.80
13332;DHT22;6735;51.456;12.626;2023-04-03T01:11:14;1.60;73.80
13332;DHT22;6735;51.456;12.626;2023-04-03T01:13:40;1.60;74.00
13332;DHT22;6735;51.456;12.626;2023-04-03T01:16:06;1.50;74.10
13332;DHT22;6735;51.456;12.626;2023-04-03T01:18:32;1.50;74.10
13332;DHT22;6735;51.456;12.626;2023-04-03T01:21:14;1.50;74.30
13332;DHT22;6735;51.456;12.626;2023-04-03T01:23:59;1.40;74.40
13332;DHT22;6735;51.456;12.626;2023-04-03T01:26:30;1.40;74.30
13332;DHT22;6735;51.456;12.626;2023-04-03T01:28:55;1.30;74.40
13332;DHT22;6735;51.456;12.626;2023-04-03T01:31:44;1.30;74.80
13332;DHT22;6735;51.456;12.626;2023-04-03T01:34:10;1.30;74.80
13332;DHT22;6735;51.456;12.626;2023-04-03T01:36:35;1.30;75.10
13332;DHT22;6735;51.456;12.626;2023-04-03T01:39:01;1.20;75.10
13332;DHT22;6735;51.456;12.626;2023-04-03T01:41:27;1.10;75.20
13332;DHT22;6735;51.456;12.626;2023-04-03T01:43:53;1.10;75.40
13332;DHT22;6735;51.456;12.626;2023-04-03T01:46:19;1.10;75.90
13332;DHT22;6735;51.456;12.626;2023-04-03T01:48:45;1.00;75.80
13332;DHT22;6735;51.456;12.626;2023-04-03T01:51:11;1.00;76.00
13332;DHT22;6735;51.456;12.626;2023-04-03T01:53:36;0.90;76.20
13332;DHT22;6735;51.456;12.626;2023-04-03T01:56:02;0.90;76.10
13332;DHT22;6735;51.456;12.626;2023-04-03T01:58:27;0.90;76.30
13332;DHT22;6735;51.456;12.626;2023-04-03T02:00:52;0.90;76.30
13332;DHT22;6735;51.456;12.626;2023-04-03T02:03:18;0.90;76.20
13332;DHT22;6735;51.456;12.626;2023-04-03T02:05:44;0.90;76.10
13332;DHT22;6735;51.456;12.626;2023-04-03T02:08:09;0.90;76.40
13332;DHT22;6735;51.456;12.626;2023-04-03T02:10:35;0.80;76.80
13332;DHT22;6735;51.456;12.626;2023-04-03T02:13:01;0.80;76.60
13332;DHT22;6735;51.456;12.626;2023-04-03T02:15:26;0.80;76.80
13332;DHT22;6735;51.456;12.626;2023-04-03T02:17:52;0.70;77.00
13332;DHT22;6735;51.456;12.626;2023-04-03T02:20:18;0.70;77.00
13332;DHT22;6735;51.456;12.626;2023-04-03T02:22:43;0.60;77.30
13332;DHT22;6735;51.456;12.626;2023-04-03T02:25:09;0.60;77.50
13332;DHT22;6735;51.456;12.626;2023-04-03T02:27:35;0.60;77.40
13332;DHT22;6735;51.456;12.626;2023-04-03T02:30:01;0.60;77.50
13332;DHT22;6735;51.456;12.626;2023-04-03T02:32:27;0.60;77.70
13332;DHT22;6735;51.456;12.626;2023-04-03T02:34:52;0.60;77.90
13332;DHT22;6735;51.456;12.626;2023-04-03T02:37:18;0.60;77.90
13332;DHT22;6735;51.456;12.626;2023-04-03T02:39:43;0.50;78.10
13332;DHT22;6735;51.456;12.626;2023-04-03T02:42:09;0.50;77.90
13332;DHT22;6735;51.456;12.626;2023-04-03T02:44:34;0.40;78.50
13332;DHT22;6735;51.456;12.626;2023-04-03T02:47:00;0.40;78.20
13332;DHT22;6735;51.456;12.626;2023-04-03T02:49:26;0.40;78.10
13332;DHT22;6735;51.456;12.626;2023-04-03T02:51:51;0.40;78.30
13332;DHT22;6735;51.456;12.626;2023-04-03T02:54:17;0.30;78.40
13332;DHT22;6735;51.456;12.626;2023-04-03T02:56:42;0.20;78.60
13332;DHT22;6735;51.456;12.626;2023-04-03T02:59:08;0.20;78.70
13332;DHT22;6735;51.456;12.626;2023-04-03T03:01:33;0.10;79.20
13332;DHT22;6735;51.456;12.626;2023-04-03T03:03:59;0.10;79.20
13332;DHT22;6735;51.456;12.626;2023-04-03T03:06:25;0.10;79.30
13332;DHT22;6735;51.456;12.626;2023-04-03T03:08:51;0.00;79.40
13332;DHT22;6735;51.456;12.626;2023-04-03T03:11:16;0.10;79.70
13332;DHT22;6735;51.456;12.626;2023-04-03T03:13:42;0.00;79.60
13332;DHT22;6735;51.456;12.626;2023-04-03T03:16:07;0.00;79.50
13332;DHT22;6735;51.456;12.626;2023-04-03T03:18:34;0.00;79.80
13332;DHT22;6735;51.456;12.626;2023-04-03T03:21:01;0.00;79.60
13332;DHT22;6735;51.456;12.626;2023-04-03T03:23:28;0.00;80.10
13332;DHT22;6735;51.456;12.626;2023-04-03T03:25:56;0.00;80.00
13332;DHT22;6735;51.456;12.626;2023-04-03T03:28:21;0.00;79.80
13332;DHT22;6735;51.456;12.626;2023-04-03T03:30:47;0.00;80.20
13332;DHT22;6735;51.456;12.626;2023-04-03T03:33:12;0.00;80.20
13332;DHT22;6735;51.456;12.626;2023-04-03T03:35:38;0.00;80.00
13332;DHT22;6735;51.456;12.626;2023-04-03T03:38:03;-0.10;80.00
13332;DHT22;6735;51.456;12.626;2023-04-03T03:40:29;-0.10;79.80
13332;DHT22;6735;51.456;12.626;2023-04-03T03:42:54;-0.10;80.10
13332;DHT22;6735;51.456;12.626;2023-04-03T03:45:20;-0.20;80.10
13332;DHT22;6735;51.456;12.626;2023-04-03T03:47:45;-0.20;80.40
13332;DHT22;6735;51.456;12.626;2023-04-03T03:50:11;-0.20;80.30
13332;DHT22;6735;51.456;12.626;2023-04-03T03:52:36;-0.20;80.30
13332;DHT22;6735;51.456;12.626;2023-04-03T03:55:02;-0.20;80.60
13332;DHT22;6735;51.456;12.626;2023-04-03T03:57:28;-0.30;80.50
13332;DHT22;6735;51.456;12.626;2023-04-03T03:59:54;-0.30;80.10
13332;DHT22;6735;51.456;12.626;2023-04-03T04:02:19;-0.30;80.80
13332;DHT22;6735;51.456;12.626;2023-04-03T04:04:45;-0.30;80.90
13332;DHT22;6735;51.456;12.626;2023-04-03T04:07:11;-0.30;80.90
13332;DHT22;6735;51.456;12.626;2023-04-03T04:09:36;-0.30;80.80
13332;DHT22;6735;51.456;12.626;2023-04-03T04:12:02;-0.30;80.90
13332;DHT22;6735;51.456;12.626;2023-04-03T04:14:27;-0.30;80.60
13332;DHT22;6735;51.456;12.626;2023-04-03T04:16:53;-0.30;80.70
13332;DHT22;6735;51.456;12.626;2023-04-03T04:19:18;-0.40;80.80
13332;DHT22;6735;51.456;12.626;2023-04-03T04:21:43;-0.40;80.60
13332;DHT22;6735;51.456;12.626;2023-04-03T04:24:09;-0.40;80.70
13332;DHT22;6735;51.456;12.626;2023-04-03T04:26:35;-0.40;80.60
13332;DHT22;6735;51.456;12.626;2023-04-03T04:29:00;-0.40;80.70
13332;DHT22;6735;51.456;12.626;2023-04-03T04:31:26;-0.50;80.90
13332;DHT22;6735;51.456;12.626;2023-04-03T04:33:52;-0.50;80.60
13332;DHT22;6735;51.456;12.626;2023-04-03T04:36:18;-0.50;80.70
13332;DHT22;6735;51.456;12.626;2023-04-03T04:38:44;-0.50;81.10
13332;DHT22;6735;51.456;12.626;2023-04-03T04:41:09;-0.50;80.80
13332;DHT22;6735;51.456;12.626;2023-04-03T04:43:35;-0.50;81.00
13332;DHT22;6735;51.456;12.626;2023-04-03T04:46:09;-0.50;80.90
13332;DHT22;6735;51.456;12.626;2023-04-03T04:48:36;-0.50;80.60
13332;DHT22;6735;51.456;12.626;2023-04-03T04:51:02;-0.50;80.80
13332;DHT22;6735;51.456;12.626;2023-04-03T04:53:28;-0.50;80.70
13332;DHT22;6735;51.456;12.626;2023-04-03T04:55:54;-0.50;80.70
13332;DHT22;6735;51.456;12.626;2023-04-03T04:58:20;-0.50;80.50
13332;DHT22;6735;51.456;12.626;2023-04-03T05:00:46;-0.40;80.50
13332;DHT22;6735;51.456;12.626;2023-04-03T05:03:11;-0.40;80.30
13332;DHT22;6735;51.456;12.626;2023-04-03T05:05:37;-0.30;80.10
13332;DHT22;6735;51.456;12.626;2023-04-03T05:08:04;-0.20;80.00
13332;DHT22;6735;51.456;12.626;2023-04-03T05:10:30;-0.10;79.80
13332;DHT22;6735;51.456;12.626;2023-04-03T05:12:56;-0.10;79.40
13332;DHT22;6735;51.456;12.626;2023-04-03T05:15:22;0.00;79.20
13332;DHT22;6735;51.456;12.626;2023-04-03T05:17:47;0.10;78.90
13332;DHT22;6735;51.456;12.626;2023-04-03T05:20:13;0.20;78.20
13332;DHT22;6735;51.456;12.626;2023-04-03T05:22:38;0.20;78.00
13332;DHT22;6735;51.456;12.626;2023-04-03T05:25:05;0.20;78.30
13332;DHT22;6735;51.456;12.626;2023-04-03T05:27:30;0.90;77.90
13332;DHT22;6735;51.456;12.626;2023-04-03T05:29:56;2.30;74.90
13332;DHT22;6735;51.456;12.626;2023-04-03T05:32:23;3.50;70.40
13332;DHT22;6735;51.456;12.626;2023-04-03T05:34:50;4.50;67.30
13332;DHT22;6735;51.456;12.626;2023-04-03T05:37:16;5.30;63.40
13332;DHT22;6735;51.456;12.626;2023-04-03T05:39:41;6.00;61.90
13332;DHT22;6735;51.456;12.626;2023-04-03T05:42:07;6.60;60.40
13332;DHT22;6735;51.456;12.626;2023-04-03T05:44:33;6.90;58.80
13332;DHT22;6735;51.456;12.626;2023-04-03T05:46:58;7.40;57.50
13332;DHT22;6735;51.456;12.626;2023-04-03T05:49:24;7.90;56.00
13332;DHT22;6735;51.456;12.626;2023-04-03T05:51:50;8.10;55.60
13332;DHT22;6735;51.456;12.626;2023-04-03T05:54:34;8.60;53.70
13332;DHT22;6735;51.456;12.626;2023-04-03T05:57:00;8.50;52.70
13332;DHT22;6735;51.456;12.626;2023-04-03T05:59:25;8.70;52.90
13332;DHT22;6735;51.456;12.626;2023-04-03T06:01:51;9.00;51.60
13332;DHT22;6735;51.456;12.626;2023-04-03T06:04:17;8.70;53.80
13332;DHT22;6735;51.456;12.626;2023-04-03T06:06:50;7.60;55.00
13332;DHT22;6735;51.456;12.626;2023-04-03T06:09:20;6.00;57.80
13332;DHT22;6735;51.456;12.626;2023-04-03T06:11:46;4.70;60.10
13332;DHT22;6735;51.456;12.626;2023-04-03T06:14:11;4.00;62.80
13332;DHT22;6735;51.456;12.626;2023-04-03T06:16:37;3.50;64.30
13332;DHT22;6735;51.456;12.626;2023-04-03T06:19:04;2.90;65.40
13332;DHT22;6735;51.456;12.626;2023-04-03T06:21:31;2.70;66.80
13332;DHT22;6735;51.456;12.626;2023-04-03T06:23:56;2.70;67.20
13332;DHT22;6735;51.456;12.626;2023-04-03T06:26:22;2.50;67.50
13332;DHT22;6735;51.456;12.626;2023-04-03T06:28:48;2.40;67.80
13332;DHT22;6735;51.456;12.626;2023-04-03T06:31:13;2.10;68.60
13332;DHT22;6735;51.456;12.626;2023-04-03T06:33:38;2.20;69.00
13332;DHT22;6735;51.456;12.626;2023-04-03T06:36:05;2.10;69.10
13332;DHT22;6735;51.456;12.626;2023-04-03T06:38:31;2.20;69.00
13332;DHT22;6735;51.456;12.626;2023-04-03T06:40:57;2.30;68.80
13332;DHT22;6735;51.456;12.626;2023-04-03T06:43:23;2.40;68.50
13332;DHT22;6735;51.456;12.626;2023-04-03T06:45:49;2.50;68.70
13332;DHT22;6735;51.456;12.626;2023-04-03T06:48:15;2.40;68.30
13332;DHT22;6735;51.456;12.626;2023-04-03T06:50:40;2.30;68.40
13332;DHT22;6735;51.456;12.626;2023-04-03T06:53:06;2.40;68.10
13332;DHT22;6735;51.456;12.626;2023-04-03T06:55:32;2.40;68.60
13332;DHT22;6735;51.456;12.626;2023-04-03T06:57:58;2.50;67.30
13332;DHT22;6735;51.456;12.626;2023-04-03T07:00:24;2.40;67.70
13332;DHT22;6735;51.456;12.626;2023-04-03T07:02:50;2.50;66.90
13332;DHT22;6735;51.456;12.626;2023-04-03T07:05:15;2.70;68.70
13332;DHT22;6735;51.456;12.626;2023-04-03T07:07:41;2.70;66.60
13332;DHT22;6735;51.456;12.626;2023-04-03T07:10:07;2.80;66.80
13332;DHT22;6735;51.456;12.626;2023-04-03T07:12:32;2.90;65.40
13332;DHT22;6735;51.456;12.626;2023-04-03T07:14:58;3.00;64.90
13332;DHT22;6735;51.456;12.626;2023-04-03T07:17:23;3.10;65.00
13332;DHT22;6735;51.456;12.626;2023-04-03T07:19:50;3.30;65.20
13332;DHT22;6735;51.456;12.626;2023-04-03T07:22:16;3.50;64.30
13332;DHT22;6735;51.456;12.626;2023-04-03T07:24:41;3.70;63.40
13332;DHT22;6735;51.456;12.626;2023-04-03T07:27:07;4.90;59.90
13332;DHT22;6735;51.456;12.626;2023-04-03T07:29:33;5.10;57.40
13332;DHT22;6735;51.456;12.626;2023-04-03T07:31:59;5.80;55.20
13332;DHT22;6735;51.456;12.626;2023-04-03T07:34:25;6.60;54.10
13332;DHT22;6735;51.456;12.626;2023-04-03T07:36:50;6.40;55.90
13332;DHT22;6735;51.456;12.626;2023-04-03T07:39:16;6.60;55.20
13332;DHT22;6735;51.456;12.626;2023-04-03T07:41:41;7.20;53.70
13332;DHT22;6735;51.456;12.626;2023-04-03T07:44:07;7.30;54.40
13332;DHT22;6735;51.456;12.626;2023-04-03T07:46:35;6.60;54.40
13332;DHT22;6735;51.456;12.626;2023-04-03T07:49:00;6.50;53.90
13332;DHT22;6735;51.456;12.626;2023-04-03T07:51:25;5.90;54.30
13332;DHT22;6735;51.456;12.626;2023-04-03T07:53:52;5.70;55.80
13332;DHT22;6735;51.456;12.626;2023-04-03T07:56:17;5.40;55.50
13332;DHT22;6735;51.456;12.626;2023-04-03T07:58:43;5.90;56.20
13332;DHT22;6735;51.456;12.626;2023-04-03T08:01:08;5.60;55.40
13332;DHT22;6735;51.456;12.626;2023-04-03T08:03:34;5.10;56.90
13332;DHT22;6735;51.456;12.626;2023-04-03T08:06:04;4.60;56.80
13332;DHT22;6735;51.456;12.626;2023-04-03T08:08:29;4.60;56.80
13332;DHT22;6735;51.456;12.626;2023-04-03T08:10:55;4.40;57.40
13332;DHT22;6735;51.456;12.626;2023-04-03T08:13:22;4.20;57.40
13332;DHT22;6735;51.456;12.626;2023-04-03T08:15:48;4.00;57.90
13332;DHT22;6735;51.456;12.626;2023-04-03T08:18:14;3.90;57.00
13332;DHT22;6735;51.456;12.626;2023-04-03T08:20:40;3.60;58.20
13332;DHT22;6735;51.456;12.626;2023-04-03T08:23:07;3.60;58.70
13332;DHT22;6735;51.456;12.626;2023-04-03T08:25:34;4.00;57.00
13332;DHT22;6735;51.456;12.626;2023-04-03T08:35:42;5.70;53.10
13332;DHT22;6735;51.456;12.626;2023-04-03T08:38:09;5.80;51.00
13332;DHT22;6735;51.456;12.626;2023-04-03T08:40:35;6.10;50.60
13332;DHT22;6735;51.456;12.626;2023-04-03T08:43:25;6.20;51.20
13332;DHT22;6735;51.456;12.626;2023-04-03T08:45:55;6.30;49.80
13332;DHT22;6735;51.456;12.626;2023-04-03T09:14:30;6.50;49.20
13332;DHT22;6735;51.456;12.626;2023-04-03T09:17:03;6.60;47.30
13332;DHT22;6735;51.456;12.626;2023-04-03T09:22:16;6.70;47.30
13332;DHT22;6735;51.456;12.626;2023-04-03T09:24:44;6.70;47.80
13332;DHT22;6735;51.456;12.626;2023-04-03T09:27:11;7.00;47.80
13332;DHT22;6735;51.456;12.626;2023-04-03T09:29:43;7.40;47.60
13332;DHT22;6735;51.456;12.626;2023-04-03T09:32:29;7.50;45.80
13332;DHT22;6735;51.456;12.626;2023-04-03T09:35:42;6.80;46.20
13332;DHT22;6735;51.456;12.626;2023-04-03T09:37:46;6.70;46.50
13332;DHT22;6735;51.456;12.626;2023-04-03T09:40:29;6.90;46.50
13332;DHT22;6735;51.456;12.626;2023-04-03T09:42:57;6.60;47.60
13332;DHT22;6735;51.456;12.626;2023-04-03T09:45:32;6.40;47.40
13332;DHT22;6735;51.456;12.626;2023-04-03T09:48:12;6.20;47.50
13332;DHT22;6735;51.456;12.626;2023-04-03T09:53:43;6.00;47.20
13332;DHT22;6735;51.456;12.626;2023-04-03T09:58:51;6.20;46.20
13332;DHT22;6735;51.456;12.626;2023-04-03T10:01:37;6.40;46.70
13332;DHT22;6735;51.456;12.626;2023-04-03T10:04:12;6.60;43.60
13332;DHT22;6735;51.456;12.626;2023-04-03T10:06:40;6.90;43.40
13332;DHT22;6735;51.456;12.626;2023-04-03T10:09:29;7.00;43.00
13332;DHT22;6735;51.456;12.626;2023-04-03T10:12:10;7.00;43.20
13332;DHT22;6735;51.456;12.626;2023-04-03T10:14:39;7.20;42.10
13332;DHT22;6735;51.456;12.626;2023-04-03T10:23:22;7.80;41.40
13332;DHT22;6735;51.456;12.626;2023-04-03T10:26:11;7.90;41.10
13332;DHT22;6735;51.456;12.626;2023-04-03T10:29:18;8.00;41.70
13332;DHT22;6735;51.456;12.626;2023-04-03T10:37:27;7.90;42.10
13332;DHT22;6735;51.456;12.626;2023-04-03T10:43:17;8.30;42.70
13332;DHT22;6735;51.456;12.626;2023-04-03T10:45:51;8.20;43.50
13332;DHT22;6735;51.456;12.626;2023-04-03T10:51:25;8.10;42.10
13332;DHT22;6735;51.456;12.626;2023-04-03T10:53:56;8.00;42.10
13332;DHT22;6735;51.456;12.626;2023-04-03T10:56:35;8.20;41.60
13332;DHT22;6735;51.456;12.626;2023-04-03T11:02:01;8.40;40.10
13332;DHT22;6735;51.456;12.626;2023-04-03T11:04:31;8.40;40.70
13332;DHT22;6735;51.456;12.626;2023-04-03T11:07:23;7.80;41.20
13332;DHT22;6735;51.456;12.626;2023-04-03T11:09:54;7.60;42.00
13332;DHT22;6735;51.456;12.626;2023-04-03T11:15:13;7.20;43.70
13332;DHT22;6735;51.456;12.626;2023-04-03T11:17:53;7.50;44.00
13332;DHT22;6735;51.456;12.626;2023-04-03T11:20:31;7.60;42.50
13332;DHT22;6735;51.456;12.626;2023-04-03T11:23:14;7.50;42.90
13332;DHT22;6735;51.456;12.626;2023-04-03T11:25:42;7.20;43.50
13332;DHT22;6735;51.456;12.626;2023-04-03T11:28:13;7.10;43.60
13332;DHT22;6735;51.456;12.626;2023-04-03T11:30:47;7.40;43.70
13332;DHT22;6735;51.456;12.626;2023-04-03T11:33:31;7.50;42.40
13332;DHT22;6735;51.456;12.626;2023-04-03T11:36:10;7.70;42.60
13332;DHT22;6735;51.456;12.626;2023-04-03T11:38:41;7.60;41.40
13332;DHT22;6735;51.456;12.626;2023-04-03T11:41:09;7.40;41.40
13332;DHT22;6735;51.456;12.626;2023-04-03T11:43:41;7.30;41.60
13332;DHT22;6735;51.456;12.626;2023-04-03T11:46:07;7.40;42.10
13332;DHT22;6735;51.456;12.626;2023-04-03T11:53:53;7.70;41.10
13332;DHT22;6735;51.456;12.626;2023-04-03T12:01:55;7.70;41.40
13332;DHT22;6735;51.456;12.626;2023-04-03T12:04:27;7.40;41.80
13332;DHT22;6735;51.456;12.626;2023-04-03T12:07:12;7.00;42.20
13332;DHT22;6735;51.456;12.626;2023-04-03T12:12:30;6.90;42.70
13332;DHT22;6735;51.456;12.626;2023-04-03T12:15:11;7.10;42.70
13332;DHT22;6735;51.456;12.626;2023-04-03T12:17:37;7.10;41.60
13332;DHT22;6735;51.456;12.626;2023-04-03T12:23:56;7.50;41.40
13332;DHT22;6735;51.456;12.626;2023-04-03T12:26:20;7.50;41.80
13332;DHT22;6735;51.456;12.626;2023-04-03T12:28:48;7.60;42.40
13332;DHT22;6735;51.456;12.626;2023-04-03T12:31:15;7.60;42.40
13332;DHT22;6735;51.456;12.626;2023-04-03T12:34:05;7.50;42.50
13332;DHT22;6735;51.456;12.626;2023-04-03T12:36:47;7.50;42.50
13332;DHT22;6735;51.456;12.626;2023-04-03T12:42:39;7.60;42.50
13332;DHT22;6735;51.456;12.626;2023-04-03T12:45:17;7.70;42.20
13332;DHT22;6735;51.456;12.626;2023-04-03T12:47:45;7.30;42.20
13332;DHT22;6735;51.456;12.626;2023-04-03T12:50:29;7.20;42.90
13332;DHT22;6735;51.456;12.626;2023-04-03T12:53:00;7.20;43.40
13332;DHT22;6735;51.456;12.626;2023-04-03T12:55:26;7.40;43.10
13332;DHT22;6735;51.456;12.626;2023-04-03T12:57:52;7.40;43.10
13332;DHT22;6735;51.456;12.626;2023-04-03T13:00:25;7.40;42.70
13332;DHT22;6735;51.456;12.626;2023-04-03T13:02:51;7.60;43.10
13332;DHT22;6735;51.456;12.626;2023-04-03T13:05:18;7.50;42.50
13332;DHT22;6735;51.456;12.626;2023-04-03T13:07:49;7.50;43.00
13332;DHT22;6735;51.456;12.626;2023-04-03T13:10:18;7.50;43.00
13332;DHT22;6735;51.456;12.626;2023-04-03T13:12:56;7.30;43.00
13332;DHT22;6735;51.456;12.626;2023-04-03T13:15:42;7.10;44.00
13332;DHT22;6735;51.456;12.626;2023-04-03T13:18:26;7.20;43.40
13332;DHT22;6735;51.456;12.626;2023-04-03T13:20:55;7.50;42.90
13332;DHT22;6735;51.456;12.626;2023-04-03T13:23:22;7.50;42.40
13332;DHT22;6735;51.456;12.626;2023-04-03T13:25:49;7.50;42.60
13332;DHT22;6735;51.456;12.626;2023-04-03T13:28:20;7.40;42.20
13332;DHT22;6735;51.456;12.626;2023-04-03T13:33:29;7.10;42.30
13332;DHT22;6735;51.456;12.626;2023-04-03T13:36:16;7.30;42.90
13332;DHT22;6735;51.456;12.626;2023-04-03T13:38:42;7.20;41.90
13332;DHT22;6735;51.456;12.626;2023-04-03T13:41:31;7.10;42.40
13332;DHT22;6735;51.456;12.626;2023-04-03T13:44:35;6.90;42.50
13332;DHT22;6735;51.456;12.626;2023-04-03T13:47:19;6.90;42.60
13332;DHT22;6735;51.456;12.626;2023-04-03T13:50:03;7.10;42.40
13332;DHT22;6735;51.456;12.626;2023-04-03T13:52:32;6.80;40.90
13332;DHT22;6735;51.456;12.626;2023-04-03T13:55:14;6.80;41.50
13332;DHT22;6735;51.456;12.626;2023-04-03T13:57:50;6.70;41.30
13332;DHT22;6735;51.456;12.626;2023-04-03T14:00:49;6.70;42.70
13332;DHT22;6735;51.456;12.626;2023-04-03T14:03:25;6.60;43.10
13332;DHT22;6735;51.456;12.626;2023-04-03T14:05:52;6.50;43.30
13332;DHT22;6735;51.456;12.626;2023-04-03T14:08:18;6.60;43.20
13332;DHT22;6735;51.456;12.626;2023-04-03T14:10:44;6.60;42.60
13332;DHT22;6735;51.456;12.626;2023-04-03T14:13:12;6.50;42.00
13332;DHT22;6735;51.456;12.626;2023-04-03T14:15:39;6.50;42.80
13332;DHT22;6735;51.456;12.626;2023-04-03T14:18:04;6.50;42.20
13332;DHT22;6735;51.456;12.626;2023-04-03T14:20:30;6.50;43.10
13332;DHT22;6735;51.456;12.626;2023-04-03T14:22:55;6.20;44.50
13332;DHT22;6735;51.456;12.626;2023-04-03T14:25:21;6.20;44.10
13332;DHT22;6735;51.456;12.626;2023-04-03T14:27:52;6.30;44.50
13332;DHT22;6735;51.456;12.626;2023-04-03T14:30:24;6.30;43.80
13332;DHT22;6735;51.456;12.626;2023-04-03T14:32:50;6.30;43.50
13332;DHT22;6735;51.456;12.626;2023-04-03T14:35:17;6.50;43.70
13332;DHT22;6735;51.456;12.626;2023-04-03T14:37:44;6.30;43.30
13332;DHT22;6735;51.456;12.626;2023-04-03T14:40:13;6.10;43.40
13332;DHT22;6735;51.456;12.626;2023-04-03T14:42:39;6.00;44.10
13332;DHT22;6735;51.456;12.626;2023-04-03T14:45:08;6.10;44.00
13332;DHT22;6735;51.456;12.626;2023-04-03T14:47:36;6.00;44.30
13332;DHT22;6735;51.456;12.626;2023-04-03T14:50:07;6.00;45.00
13332;DHT22;6735;51.456;12.626;2023-04-03T14:52:36;6.00;44.50
13332;DHT22;6735;51.456;12.626;2023-04-03T14:55:04;5.90;44.40
13332;DHT22;6735;51.456;12.626;2023-04-03T14:57:31;5.70;44.40
13332;DHT22;6735;51.456;12.626;2023-04-03T14:59:58;5.70;45.10
13332;DHT22;6735;51.456;12.626;2023-04-03T15:02:35;5.70;44.60
13332;DHT22;6735;51.456;12.626;2023-04-03T15:05:03;5.70;44.40
13332;DHT22;6735;51.456;12.626;2023-04-03T15:07:32;5.60;44.50
13332;DHT22;6735;51.456;12.626;2023-04-03T15:10:05;5.70;44.60
13332;DHT22;6735;51.456;12.626;2023-04-03T15:12:31;5.80;44.90
13332;DHT22;6735;51.456;12.626;2023-04-03T15:14:57;5.70;44.80
13332;DHT22;6735;51.456;12.626;2023-04-03T15:17:22;5.70;44.20
13332;DHT22;6735;51.456;12.626;2023-04-03T15:19:48;5.60;44.50
13332;DHT22;6735;51.456;12.626;2023-04-03T15:22:15;5.50;44.40
13332;DHT22;6735;51.456;12.626;2023-04-03T15:24:42;5.70;44.40
13332;DHT22;6735;51.456;12.626;2023-04-03T15:27:08;5.60;44.50
13332;DHT22;6735;51.456;12.626;2023-04-03T15:29:33;5.40;44.90
13332;DHT22;6735;51.456;12.626;2023-04-03T15:31:59;5.60;44.80
13332;DHT22;6735;51.456;12.626;2023-04-03T15:34:24;5.50;45.40
13332;DHT22;6735;51.456;12.626;2023-04-03T15:36:50;5.60;45.70
13332;DHT22;6735;51.456;12.626;2023-04-03T15:39:17;5.70;45.50
13332;DHT22;6735;51.456;12.626;2023-04-03T15:41:44;5.70;46.20
13332;DHT22;6735;51.456;12.626;2023-04-03T15:44:10;5.80;45.90
13332;DHT22;6735;51.456;12.626;2023-04-03T15:46:37;5.70;45.30
13332;DHT22;6735;51.456;12.626;2023-04-03T15:49:03;5.70;45.50
13332;DHT22;6735;51.456;12.626;2023-04-03T15:51:29;5.80;45.60
13332;DHT22;6735;51.456;12.626;2023-04-03T15:53:55;5.80;44.80
13332;DHT22;6735;51.456;12.626;2023-04-03T15:56:20;5.80;45.30
13332;DHT22;6735;51.456;12.626;2023-04-03T15:58:46;5.80;45.40
13332;DHT22;6735;51.456;12.626;2023-04-03T16:01:11;5.70;44.80
13332;DHT22;6735;51.456;12.626;2023-04-03T16:03:37;5.70;44.80
13332;DHT22;6735;51.456;12.626;2023-04-03T16:06:13;5.70;45.50
13332;DHT22;6735;51.456;12.626;2023-04-03T16:08:39;5.90;45.50
13332;DHT22;6735;51.456;12.626;2023-04-03T16:11:05;5.70;44.90
13332;DHT22;6735;51.456;12.626;2023-04-03T16:13:30;5.70;45.10
13332;DHT22;6735;51.456;12.626;2023-04-03T16:15:56;5.60;45.20
13332;DHT22;6735;51.456;12.626;2023-04-03T16:18:22;5.60;45.50
13332;DHT22;6735;51.456;12.626;2023-04-03T16:20:47;5.60;45.80
13332;DHT22;6735;51.456;12.626;2023-04-03T16:23:13;5.60;45.90
13332;DHT22;6735;51.456;12.626;2023-04-03T16:25:39;5.50;46.10
13332;DHT22;6735;51.456;12.626;2023-04-03T16:28:04;5.60;46.60
13332;DHT22;6735;51.456;12.626;2023-04-03T16:30:30;5.60;46.50
13332;DHT22;6735;51.456;12.626;2023-04-03T16:32:56;5.60;46.30
13332;DHT22;6735;51.456;12.626;2023-04-03T16:35:22;5.50;45.80
13332;DHT22;6735;51.456;12.626;2023-04-03T16:37:48;5.60;46.20
13332;DHT22;6735;51.456;12.626;2023-04-03T16:40:13;5.70;46.60
13332;DHT22;6735;51.456;12.626;2023-04-03T16:42:39;5.70;46.50
13332;DHT22;6735;51.456;12.626;2023-04-03T16:45:06;5.70;46.90
13332;DHT22;6735;51.456;12.626;2023-04-03T16:47:32;5.70;46.80
13332;DHT22;6735;51.456;12.626;2023-04-03T16:49:57;5.70;47.20
13332;DHT22;6735;51.456;12.626;2023-04-03T16:52:23;5.80;47.10
13332;DHT22;6735;51.456;12.626;2023-04-03T16:54:48;5.70;46.50
13332;DHT22;6735;51.456;12.626;2023-04-03T16:57:14;5.60;46.70
13332;DHT22;6735;51.456;12.626;2023-04-03T16:59:40;5.40;47.30
13332;DHT22;6735;51.456;12.626;2023-04-03T17:02:05;5.30;46.70
13332;DHT22;6735;51.456;12.626;2023-04-03T17:04:31;5.20;47.10
13332;DHT22;6735;51.456;12.626;2023-04-03T17:06:59;5.20;47.10
13332;DHT22;6735;51.456;12.626;2023-04-03T17:09:30;5.20;47.50
13332;DHT22;6735;51.456;12.626;2023-04-03T17:11:55;5.30;47.50
13332;DHT22;6735;51.456;12.626;2023-04-03T17:14:21;5.20;48.10
13332;DHT22;6735;51.456;12.626;2023-04-03T17:16:46;5.20;48.10
13332;DHT22;6735;51.456;12.626;2023-04-03T17:19:12;5.20;48.50
13332;DHT22;6735;51.456;12.626;2023-04-03T17:21:37;5.10;48.50